<?xml version='1.0' encoding='UTF-8'?><gpx version="1.1" creator="JPX - https://github.com/jenetics/jpx" xmlns="http://www.topografix.com/GPX/1/1"><trk><trkseg><trkpt lat="38.2156336" lon="15.5058238"><ele>475.00000000000006</ele><time>2026-03-26T09:21:13.737Z</time></trkpt><trkpt lat="38.2155695" lon="15.5057951"><ele>475.0</ele><time>2026-03-26T09:21:16.738Z</time></trkpt><trkpt lat="38.2155892" lon="15.5057182"><ele>475.0</ele><time>2026-03-26T09:21:18.737Z</time></trkpt><trkpt lat="38.215631" lon="15.5056427"><ele>475.0</ele><time>2026-03-26T09:21:20.738Z</time></trkpt><trkpt lat="38.215655" lon="15.5055507"><ele>475.00000000000006</ele><time>2026-03-26T09:21:22.737Z</time></trkpt><trkpt lat="38.2156575" lon="15.5054462"><ele>475.0</ele><time>2026-03-26T09:21:24.738Z</time></trkpt><trkpt lat="38.2156261" lon="15.5053416"><ele>477.00000000000006</ele><time>2026-03-26T09:21:27.737Z</time></trkpt><trkpt lat="38.2155877" lon="15.5052577"><ele>479.0</ele><time>2026-03-26T09:21:29.737Z</time></trkpt><trkpt lat="38.2155323" lon="15.5051254"><ele>481.0</ele><time>2026-03-26T09:21:33.737Z</time></trkpt><trkpt lat="38.2155182" lon="15.5050426"><ele>483.0</ele><time>2026-03-26T09:21:35.738Z</time></trkpt><trkpt lat="38.2155064" lon="15.5049342"><ele>485.00000000000006</ele><time>2026-03-26T09:21:37.738Z</time></trkpt><trkpt lat="38.2154904" lon="15.5048381"><ele>487.0</ele><time>2026-03-26T09:21:39.738Z</time></trkpt><trkpt lat="38.2154703" lon="15.5047521"><ele>487.00000000000006</ele><time>2026-03-26T09:21:41.738Z</time></trkpt><trkpt lat="38.2154396" lon="15.5046639"><ele>487.0</ele><time>2026-03-26T09:21:43.738Z</time></trkpt><trkpt lat="38.2153955" lon="15.5045641"><ele>487.0</ele><time>2026-03-26T09:21:45.738Z</time></trkpt><trkpt lat="38.2153661" lon="15.5044588"><ele>487.0</ele><time>2026-03-26T09:21:47.737Z</time></trkpt><trkpt lat="38.2153421" lon="15.5043392"><ele>487.00000000000006</ele><time>2026-03-26T09:21:49.738Z</time></trkpt><trkpt lat="38.2153353" lon="15.5042286"><ele>487.0</ele><time>2026-03-26T09:21:51.737Z</time></trkpt><trkpt lat="38.2153439" lon="15.5041257"><ele>484.50000000000006</ele><time>2026-03-26T09:21:53.737Z</time></trkpt><trkpt lat="38.2153775" lon="15.5040308"><ele>482.0</ele><time>2026-03-26T09:21:55.738Z</time></trkpt><trkpt lat="38.2153948" lon="15.5039537"><ele>479.5</ele><time>2026-03-26T09:21:57.736Z</time></trkpt><trkpt lat="38.2153579" lon="15.5038456"><ele>477.0</ele><time>2026-03-26T09:22:00.737Z</time></trkpt><trkpt lat="38.2152959" lon="15.5037823"><ele>474.50000000000006</ele><time>2026-03-26T09:22:02.737Z</time></trkpt><trkpt lat="38.2152154" lon="15.5037596"><ele>472.0</ele><time>2026-03-26T09:22:04.738Z</time></trkpt><trkpt lat="38.2151477" lon="15.5037392"><ele>469.42857142857144</ele><time>2026-03-26T09:22:06.737Z</time></trkpt><trkpt lat="38.2150644" lon="15.5037328"><ele>466.8571428571429</ele><time>2026-03-26T09:22:08.738Z</time></trkpt><trkpt lat="38.2149863" lon="15.5037251"><ele>464.28571428571433</ele><time>2026-03-26T09:22:10.738Z</time></trkpt><trkpt lat="38.2149193" lon="15.5037184"><ele>461.7142857142857</ele><time>2026-03-26T09:22:12.737Z</time></trkpt><trkpt lat="38.2148676" lon="15.503663"><ele>459.1428571428572</ele><time>2026-03-26T09:22:14.737Z</time></trkpt><trkpt lat="38.2148538" lon="15.503581"><ele>456.5714285714286</ele><time>2026-03-26T09:22:17.737Z</time></trkpt><trkpt lat="38.2148639" lon="15.5034818"><ele>454.0</ele><time>2026-03-26T09:22:24.738Z</time></trkpt><trkpt lat="38.2148808" lon="15.5033846"><ele>454.00000000000006</ele><time>2026-03-26T09:22:26.737Z</time></trkpt><trkpt lat="38.2148926" lon="15.5032767"><ele>454.0</ele><time>2026-03-26T09:22:28.736Z</time></trkpt><trkpt lat="38.2148856" lon="15.5031815"><ele>454.0</ele><time>2026-03-26T09:22:30.737Z</time></trkpt><trkpt lat="38.2149347" lon="15.5030617"><ele>454.0</ele><time>2026-03-26T09:22:32.737Z</time></trkpt><trkpt lat="38.2149745" lon="15.5029922"><ele>454.00000000000006</ele><time>2026-03-26T09:22:33.737Z</time></trkpt><trkpt lat="38.2150462" lon="15.5028786"><ele>454.0</ele><time>2026-03-26T09:22:35.736Z</time></trkpt><trkpt lat="38.215123" lon="15.5027936"><ele>454.83333333333337</ele><time>2026-03-26T09:22:37.737Z</time></trkpt><trkpt lat="38.2152094" lon="15.5027094"><ele>455.6666666666667</ele><time>2026-03-26T09:22:39.738Z</time></trkpt><trkpt lat="38.2153138" lon="15.5026195"><ele>456.5</ele><time>2026-03-26T09:22:41.737Z</time></trkpt><trkpt lat="38.2153693" lon="15.5025738"><ele>457.33333333333337</ele><time>2026-03-26T09:22:42.737Z</time></trkpt><trkpt lat="38.2154347" lon="15.5025137"><ele>458.1666666666667</ele><time>2026-03-26T09:22:43.738Z</time></trkpt><trkpt lat="38.2154892" lon="15.5024642"><ele>459.0</ele><time>2026-03-26T09:22:44.737Z</time></trkpt><trkpt lat="38.215572" lon="15.5024648"><ele>459.0</ele><time>2026-03-26T09:22:45.737Z</time></trkpt><trkpt lat="38.2156439" lon="15.5024452"><ele>459.0</ele><time>2026-03-26T09:22:46.737Z</time></trkpt><trkpt lat="38.2157171" lon="15.5024327"><ele>459.0</ele><time>2026-03-26T09:22:47.738Z</time></trkpt><trkpt lat="38.2157906" lon="15.5024319"><ele>459.0</ele><time>2026-03-26T09:22:48.737Z</time></trkpt><trkpt lat="38.2158653" lon="15.5024444"><ele>459.0</ele><time>2026-03-26T09:22:49.738Z</time></trkpt><trkpt lat="38.215964" lon="15.5024462"><ele>459.0</ele><time>2026-03-26T09:22:50.737Z</time></trkpt><trkpt lat="38.2160441" lon="15.5024419"><ele>457.57142857142856</ele><time>2026-03-26T09:22:51.738Z</time></trkpt><trkpt lat="38.2161096" lon="15.5024518"><ele>456.1428571428571</ele><time>2026-03-26T09:22:52.737Z</time></trkpt><trkpt lat="38.2161747" lon="15.5024558"><ele>454.71428571428567</ele><time>2026-03-26T09:22:53.738Z</time></trkpt><trkpt lat="38.2162662" lon="15.5024224"><ele>453.2857142857143</ele><time>2026-03-26T09:22:55.738Z</time></trkpt><trkpt lat="38.216329" lon="15.5024091"><ele>451.8571428571428</ele><time>2026-03-26T09:22:56.737Z</time></trkpt><trkpt lat="38.2163951" lon="15.5023868"><ele>450.4285714285714</ele><time>2026-03-26T09:22:58.738Z</time></trkpt><trkpt lat="38.216463" lon="15.5023912"><ele>449.0</ele><time>2026-03-26T09:23:00.737Z</time></trkpt><trkpt lat="38.2165204" lon="15.5023484"><ele>445.79999999999995</ele><time>2026-03-26T09:23:04.737Z</time></trkpt><trkpt lat="38.2165052" lon="15.5022684"><ele>442.59999999999997</ele><time>2026-03-26T09:23:07.737Z</time></trkpt><trkpt lat="38.2164992" lon="15.5021851"><ele>439.4</ele><time>2026-03-26T09:23:08.737Z</time></trkpt><trkpt lat="38.2165212" lon="15.5020469"><ele>436.2</ele><time>2026-03-26T09:23:10.737Z</time></trkpt><trkpt lat="38.2165272" lon="15.5019141"><ele>433.0</ele><time>2026-03-26T09:23:12.737Z</time></trkpt><trkpt lat="38.2165356" lon="15.5017501"><ele>433.00000000000006</ele><time>2026-03-26T09:23:14.738Z</time></trkpt><trkpt lat="38.2165356" lon="15.50161"><ele>433.0</ele><time>2026-03-26T09:23:16.737Z</time></trkpt><trkpt lat="38.216503" lon="15.5014959"><ele>433.0</ele><time>2026-03-26T09:23:18.737Z</time></trkpt><trkpt lat="38.2164947" lon="15.5014157"><ele>433.0</ele><time>2026-03-26T09:23:21.736Z</time></trkpt><trkpt lat="38.2164911" lon="15.5013321"><ele>433.00000000000006</ele><time>2026-03-26T09:23:23.737Z</time></trkpt><trkpt lat="38.2164972" lon="15.5012156"><ele>433.0</ele><time>2026-03-26T09:23:26.738Z</time></trkpt><trkpt lat="38.2165215" lon="15.5011073"><ele>433.00000000000006</ele><time>2026-03-26T09:23:29.736Z</time></trkpt><trkpt lat="38.2165969" lon="15.5011915"><ele>433.0</ele><time>2026-03-26T09:23:37.738Z</time></trkpt><trkpt lat="38.216621" lon="15.5012734"><ele>433.0</ele><time>2026-03-26T09:23:39.737Z</time></trkpt><trkpt lat="38.2166521" lon="15.5013643"><ele>433.0</ele><time>2026-03-26T09:23:42.738Z</time></trkpt><trkpt lat="38.216713" lon="15.5014196"><ele>433.00000000000006</ele><time>2026-03-26T09:23:45.738Z</time></trkpt><trkpt lat="38.2167627" lon="15.5013396"><ele>433.0</ele><time>2026-03-26T09:23:49.737Z</time></trkpt><trkpt lat="38.2167265" lon="15.5012419"><ele>431.83333333333337</ele><time>2026-03-26T09:23:51.737Z</time></trkpt><trkpt lat="38.2166914" lon="15.5011575"><ele>430.6666666666667</ele><time>2026-03-26T09:23:53.737Z</time></trkpt><trkpt lat="38.2166917" lon="15.5010715"><ele>429.5</ele><time>2026-03-26T09:23:55.737Z</time></trkpt><trkpt lat="38.2166826" lon="15.5009833"><ele>428.33333333333337</ele><time>2026-03-26T09:23:58.737Z</time></trkpt><trkpt lat="38.2166371" lon="15.5008875"><ele>427.1666666666667</ele><time>2026-03-26T09:24:02.737Z</time></trkpt><trkpt lat="38.2166314" lon="15.5007834"><ele>426.0</ele><time>2026-03-26T09:24:04.737Z</time></trkpt><trkpt lat="38.2166516" lon="15.5006955"><ele>426.0</ele><time>2026-03-26T09:24:06.736Z</time></trkpt><trkpt lat="38.2167062" lon="15.5006209"><ele>426.0</ele><time>2026-03-26T09:24:09.737Z</time></trkpt><trkpt lat="38.2167848" lon="15.5005314"><ele>426.0</ele><time>2026-03-26T09:24:12.737Z</time></trkpt><trkpt lat="38.2168376" lon="15.5004427"><ele>426.0</ele><time>2026-03-26T09:24:14.737Z</time></trkpt><trkpt lat="38.21688" lon="15.5003573"><ele>426.0</ele><time>2026-03-26T09:24:16.737Z</time></trkpt><trkpt lat="38.2169276" lon="15.5002776"><ele>426.0</ele><time>2026-03-26T09:24:18.736Z</time></trkpt><trkpt lat="38.2169792" lon="15.5001831"><ele>426.8</ele><time>2026-03-26T09:24:20.737Z</time></trkpt><trkpt lat="38.2170148" lon="15.5000973"><ele>427.6</ele><time>2026-03-26T09:24:22.738Z</time></trkpt><trkpt lat="38.2170962" lon="15.5000007"><ele>428.4</ele><time>2026-03-26T09:24:23.737Z</time></trkpt><trkpt lat="38.2171592" lon="15.4999054"><ele>429.2</ele><time>2026-03-26T09:24:25.738Z</time></trkpt><trkpt lat="38.2172165" lon="15.4998027"><ele>430.0</ele><time>2026-03-26T09:24:28.737Z</time></trkpt><trkpt lat="38.217269" lon="15.4997234"><ele>430.00000000000006</ele><time>2026-03-26T09:24:30.738Z</time></trkpt><trkpt lat="38.2173082" lon="15.499646"><ele>430.0</ele><time>2026-03-26T09:24:32.738Z</time></trkpt><trkpt lat="38.2173302" lon="15.4995624"><ele>430.0</ele><time>2026-03-26T09:24:33.738Z</time></trkpt><trkpt lat="38.2173772" lon="15.4994998"><ele>430.0</ele><time>2026-03-26T09:24:34.737Z</time></trkpt><trkpt lat="38.2174127" lon="15.4994206"><ele>430.00000000000006</ele><time>2026-03-26T09:24:36.737Z</time></trkpt><trkpt lat="38.2174485" lon="15.4993032"><ele>430.0</ele><time>2026-03-26T09:24:39.737Z</time></trkpt><trkpt lat="38.2174724" lon="15.4992114"><ele>424.6666666666667</ele><time>2026-03-26T09:24:41.737Z</time></trkpt><trkpt lat="38.2174955" lon="15.4991274"><ele>419.33333333333337</ele><time>2026-03-26T09:24:43.737Z</time></trkpt><trkpt lat="38.2175087" lon="15.4990417"><ele>414.0</ele><time>2026-03-26T09:24:45.738Z</time></trkpt><trkpt lat="38.2175047" lon="15.4989251"><ele>408.66666666666663</ele><time>2026-03-26T09:24:48.737Z</time></trkpt><trkpt lat="38.2174858" lon="15.4988385"><ele>403.3333333333333</ele><time>2026-03-26T09:24:50.736Z</time></trkpt><trkpt lat="38.2174765" lon="15.4987317"><ele>398.0</ele><time>2026-03-26T09:24:53.737Z</time></trkpt><trkpt lat="38.2174869" lon="15.4986259"><ele>395.99999999999994</ele><time>2026-03-26T09:24:56.737Z</time></trkpt><trkpt lat="38.2174457" lon="15.4985411"><ele>394.0</ele><time>2026-03-26T09:24:59.738Z</time></trkpt><trkpt lat="38.2173609" lon="15.4985401"><ele>392.0</ele><time>2026-03-26T09:25:02.737Z</time></trkpt><trkpt lat="38.2172965" lon="15.4985017"><ele>390.0</ele><time>2026-03-26T09:25:06.736Z</time></trkpt><trkpt lat="38.2172351" lon="15.4984194"><ele>387.99999999999994</ele><time>2026-03-26T09:25:10.737Z</time></trkpt><trkpt lat="38.2171917" lon="15.49835"><ele>386.0</ele><time>2026-03-26T09:25:12.738Z</time></trkpt><trkpt lat="38.2171265" lon="15.4982757"><ele>390.16666666666663</ele><time>2026-03-26T09:25:14.737Z</time></trkpt><trkpt lat="38.2170495" lon="15.4981982"><ele>394.3333333333333</ele><time>2026-03-26T09:25:17.737Z</time></trkpt><trkpt lat="38.2169936" lon="15.4981455"><ele>398.5</ele><time>2026-03-26T09:25:19.738Z</time></trkpt><trkpt lat="38.2169435" lon="15.4980793"><ele>402.66666666666663</ele><time>2026-03-26T09:25:22.737Z</time></trkpt><trkpt lat="38.2170217" lon="15.4980547"><ele>406.8333333333333</ele><time>2026-03-26T09:25:26.736Z</time></trkpt><trkpt lat="38.2170892" lon="15.49809"><ele>411.0</ele><time>2026-03-26T09:25:28.738Z</time></trkpt><trkpt lat="38.2171558" lon="15.4980879"><ele>411.0</ele><time>2026-03-26T09:25:30.738Z</time></trkpt><trkpt lat="38.2172238" lon="15.4980381"><ele>411.0</ele><time>2026-03-26T09:25:32.737Z</time></trkpt><trkpt lat="38.2172719" lon="15.4979622"><ele>411.0</ele><time>2026-03-26T09:25:34.737Z</time></trkpt><trkpt lat="38.2173248" lon="15.4978731"><ele>411.0</ele><time>2026-03-26T09:25:37.737Z</time></trkpt><trkpt lat="38.2173683" lon="15.4978048"><ele>411.0</ele><time>2026-03-26T09:25:39.738Z</time></trkpt><trkpt lat="38.2174228" lon="15.4977634"><ele>411.0</ele><time>2026-03-26T09:25:41.737Z</time></trkpt><trkpt lat="38.2174631" lon="15.4976968"><ele>411.0</ele><time>2026-03-26T09:25:43.737Z</time></trkpt><trkpt lat="38.2174898" lon="15.4976157"><ele>406.8333333333333</ele><time>2026-03-26T09:25:45.737Z</time></trkpt><trkpt lat="38.2175239" lon="15.4975313"><ele>402.66666666666663</ele><time>2026-03-26T09:25:48.738Z</time></trkpt><trkpt lat="38.2176051" lon="15.4975204"><ele>398.5</ele><time>2026-03-26T09:25:52.737Z</time></trkpt><trkpt lat="38.21769" lon="15.4974958"><ele>394.3333333333333</ele><time>2026-03-26T09:25:55.737Z</time></trkpt><trkpt lat="38.2177488" lon="15.497431"><ele>390.16666666666663</ele><time>2026-03-26T09:25:57.738Z</time></trkpt><trkpt lat="38.2178103" lon="15.497364"><ele>386.0</ele><time>2026-03-26T09:25:59.738Z</time></trkpt><trkpt lat="38.217874" lon="15.4972826"><ele>385.99999999999994</ele><time>2026-03-26T09:26:01.738Z</time></trkpt><trkpt lat="38.2179074" lon="15.4971789"><ele>386.0</ele><time>2026-03-26T09:26:03.738Z</time></trkpt><trkpt lat="38.2179002" lon="15.4970717"><ele>386.0</ele><time>2026-03-26T09:26:05.736Z</time></trkpt><trkpt lat="38.2179127" lon="15.4969715"><ele>386.0</ele><time>2026-03-26T09:26:07.737Z</time></trkpt><trkpt lat="38.2179496" lon="15.4969036"><ele>385.99999999999994</ele><time>2026-03-26T09:26:09.738Z</time></trkpt><trkpt lat="38.2180393" lon="15.4968775"><ele>386.0</ele><time>2026-03-26T09:26:12.738Z</time></trkpt><trkpt lat="38.2181185" lon="15.496909"><ele>382.49999999999994</ele><time>2026-03-26T09:26:15.738Z</time></trkpt><trkpt lat="38.2181782" lon="15.4968663"><ele>379.0</ele><time>2026-03-26T09:26:17.738Z</time></trkpt><trkpt lat="38.2182252" lon="15.4967269"><ele>375.5</ele><time>2026-03-26T09:26:19.737Z</time></trkpt><trkpt lat="38.218245" lon="15.4966206"><ele>372.0</ele><time>2026-03-26T09:26:21.738Z</time></trkpt><trkpt lat="38.2182903" lon="15.4965422"><ele>368.5</ele><time>2026-03-26T09:26:23.737Z</time></trkpt><trkpt lat="38.2183442" lon="15.4964909"><ele>365.0</ele><time>2026-03-26T09:26:25.738Z</time></trkpt><trkpt lat="38.2184326" lon="15.4964392"><ele>365.0</ele><time>2026-03-26T09:26:28.738Z</time></trkpt><trkpt lat="38.2185063" lon="15.4963987"><ele>365.0</ele><time>2026-03-26T09:26:30.738Z</time></trkpt><trkpt lat="38.2185739" lon="15.4963251"><ele>365.0</ele><time>2026-03-26T09:26:32.737Z</time></trkpt><trkpt lat="38.2186487" lon="15.4962509"><ele>365.0</ele><time>2026-03-26T09:26:34.737Z</time></trkpt><trkpt lat="38.2187372" lon="15.49621"><ele>365.0</ele><time>2026-03-26T09:26:36.738Z</time></trkpt><trkpt lat="38.2188006" lon="15.4961562"><ele>365.0</ele><time>2026-03-26T09:26:38.736Z</time></trkpt><trkpt lat="38.2188527" lon="15.4960636"><ele>367.83333333333337</ele><time>2026-03-26T09:26:40.738Z</time></trkpt><trkpt lat="38.2189009" lon="15.4960038"><ele>370.6666666666667</ele><time>2026-03-26T09:26:42.738Z</time></trkpt><trkpt lat="38.2189575" lon="15.4959547"><ele>373.5</ele><time>2026-03-26T09:26:44.737Z</time></trkpt><trkpt lat="38.2190246" lon="15.4958748"><ele>376.3333333333333</ele><time>2026-03-26T09:26:46.738Z</time></trkpt><trkpt lat="38.219083" lon="15.495794"><ele>379.16666666666663</ele><time>2026-03-26T09:26:48.738Z</time></trkpt><trkpt lat="38.2191283" lon="15.4957044"><ele>382.0</ele><time>2026-03-26T09:26:50.738Z</time></trkpt><trkpt lat="38.2191695" lon="15.4955871"><ele>376.0</ele><time>2026-03-26T09:26:52.738Z</time></trkpt><trkpt lat="38.2192466" lon="15.4955058"><ele>370.0</ele><time>2026-03-26T09:26:54.738Z</time></trkpt><trkpt lat="38.2193222" lon="15.4954701"><ele>364.0</ele><time>2026-03-26T09:26:56.737Z</time></trkpt><trkpt lat="38.2193895" lon="15.4954419"><ele>358.0</ele><time>2026-03-26T09:26:58.738Z</time></trkpt><trkpt lat="38.2194536" lon="15.4953602"><ele>352.0</ele><time>2026-03-26T09:27:00.738Z</time></trkpt><trkpt lat="38.2194868" lon="15.4952891"><ele>346.0</ele><time>2026-03-26T09:27:02.737Z</time></trkpt><trkpt lat="38.219538" lon="15.4952424"><ele>345.0</ele><time>2026-03-26T09:27:04.738Z</time></trkpt><trkpt lat="38.2196166" lon="15.495201"><ele>344.0</ele><time>2026-03-26T09:27:07.738Z</time></trkpt><trkpt lat="38.2196837" lon="15.4951955"><ele>343.0</ele><time>2026-03-26T09:27:09.738Z</time></trkpt><trkpt lat="38.2197644" lon="15.4951954"><ele>342.0</ele><time>2026-03-26T09:27:11.738Z</time></trkpt><trkpt lat="38.2198382" lon="15.4952236"><ele>341.0</ele><time>2026-03-26T09:27:13.738Z</time></trkpt><trkpt lat="38.2199149" lon="15.4952632"><ele>340.0</ele><time>2026-03-26T09:27:15.738Z</time></trkpt><trkpt lat="38.2200012" lon="15.4953208"><ele>338.8333333333333</ele><time>2026-03-26T09:27:17.737Z</time></trkpt><trkpt lat="38.2200638" lon="15.4953607"><ele>337.66666666666663</ele><time>2026-03-26T09:27:18.739Z</time></trkpt><trkpt lat="38.2201376" lon="15.4954487"><ele>336.5</ele><time>2026-03-26T09:27:20.738Z</time></trkpt><trkpt lat="38.2202066" lon="15.495526"><ele>335.3333333333333</ele><time>2026-03-26T09:27:22.738Z</time></trkpt><trkpt lat="38.2202706" lon="15.4955798"><ele>334.1666666666667</ele><time>2026-03-26T09:27:24.739Z</time></trkpt><trkpt lat="38.220335" lon="15.4956111"><ele>333.0</ele><time>2026-03-26T09:27:26.738Z</time></trkpt><trkpt lat="38.2204052" lon="15.4955818"><ele>330.6666666666667</ele><time>2026-03-26T09:27:28.738Z</time></trkpt><trkpt lat="38.220458" lon="15.4955362"><ele>328.3333333333333</ele><time>2026-03-26T09:27:30.738Z</time></trkpt><trkpt lat="38.2205231" lon="15.4955104"><ele>326.0</ele><time>2026-03-26T09:27:32.738Z</time></trkpt><trkpt lat="38.2206248" lon="15.4955062"><ele>323.66666666666663</ele><time>2026-03-26T09:27:34.738Z</time></trkpt><trkpt lat="38.2206949" lon="15.4955125"><ele>321.3333333333333</ele><time>2026-03-26T09:27:35.739Z</time></trkpt><trkpt lat="38.2207959" lon="15.4955096"><ele>319.0</ele><time>2026-03-26T09:27:37.737Z</time></trkpt><trkpt lat="38.2209029" lon="15.4954916"><ele>319.3333333333333</ele><time>2026-03-26T09:27:39.737Z</time></trkpt><trkpt lat="38.2209812" lon="15.495434"><ele>319.66666666666663</ele><time>2026-03-26T09:27:41.739Z</time></trkpt><trkpt lat="38.2210425" lon="15.4953962"><ele>320.0</ele><time>2026-03-26T09:27:43.737Z</time></trkpt><trkpt lat="38.2210836" lon="15.4953152"><ele>320.3333333333333</ele><time>2026-03-26T09:27:47.738Z</time></trkpt><trkpt lat="38.2211057" lon="15.4951878"><ele>320.6666666666667</ele><time>2026-03-26T09:27:49.739Z</time></trkpt><trkpt lat="38.2211316" lon="15.4951061"><ele>321.0</ele><time>2026-03-26T09:27:50.739Z</time></trkpt><trkpt lat="38.2211734" lon="15.4949808"><ele>321.0</ele><time>2026-03-26T09:27:52.738Z</time></trkpt><trkpt lat="38.2211485" lon="15.4948801"><ele>321.0</ele><time>2026-03-26T09:27:54.737Z</time></trkpt><trkpt lat="38.2211067" lon="15.4948004"><ele>321.0</ele><time>2026-03-26T09:27:56.738Z</time></trkpt><trkpt lat="38.2210644" lon="15.4947182"><ele>321.0</ele><time>2026-03-26T09:27:58.739Z</time></trkpt><trkpt lat="38.2210474" lon="15.4946367"><ele>321.0</ele><time>2026-03-26T09:28:01.737Z</time></trkpt><trkpt lat="38.2210974" lon="15.4946872"><ele>321.0</ele><time>2026-03-26T09:28:34.739Z</time></trkpt><trkpt lat="38.2211807" lon="15.4947947"><ele>321.0</ele><time>2026-03-26T09:28:36.739Z</time></trkpt><trkpt lat="38.2212237" lon="15.494896"><ele>321.0</ele><time>2026-03-26T09:28:38.739Z</time></trkpt><trkpt lat="38.2212534" lon="15.494977"><ele>321.0</ele><time>2026-03-26T09:28:41.739Z</time></trkpt><trkpt lat="38.2212295" lon="15.4950751"><ele>321.0</ele><time>2026-03-26T09:30:19.739Z</time></trkpt><trkpt lat="38.2211996" lon="15.495149"><ele>321.0</ele><time>2026-03-26T09:30:34.739Z</time></trkpt><trkpt lat="38.2211839" lon="15.4952398"><ele>321.0</ele><time>2026-03-26T09:30:36.739Z</time></trkpt><trkpt lat="38.2211626" lon="15.4953707"><ele>317.6</ele><time>2026-03-26T09:30:38.738Z</time></trkpt><trkpt lat="38.221133" lon="15.4955088"><ele>314.20000000000005</ele><time>2026-03-26T09:30:40.739Z</time></trkpt><trkpt lat="38.2210207" lon="15.4955239"><ele>310.79999999999995</ele><time>2026-03-26T09:30:42.739Z</time></trkpt><trkpt lat="38.2209118" lon="15.495552"><ele>307.4</ele><time>2026-03-26T09:30:44.738Z</time></trkpt><trkpt lat="38.2208044" lon="15.4955657"><ele>304.0</ele><time>2026-03-26T09:30:46.738Z</time></trkpt><trkpt lat="38.2207245" lon="15.4956115"><ele>307.0</ele><time>2026-03-26T09:30:48.739Z</time></trkpt><trkpt lat="38.2206254" lon="15.4956798"><ele>310.0</ele><time>2026-03-26T09:30:50.738Z</time></trkpt><trkpt lat="38.2205774" lon="15.4957415"><ele>313.0</ele><time>2026-03-26T09:30:51.738Z</time></trkpt><trkpt lat="38.2204927" lon="15.4958256"><ele>316.0</ele><time>2026-03-26T09:30:53.738Z</time></trkpt><trkpt lat="38.2204327" lon="15.4958861"><ele>319.0</ele><time>2026-03-26T09:30:54.739Z</time></trkpt><trkpt lat="38.2203485" lon="15.4959042"><ele>319.0</ele><time>2026-03-26T09:30:56.738Z</time></trkpt><trkpt lat="38.2202738" lon="15.495883"><ele>319.0</ele><time>2026-03-26T09:30:58.738Z</time></trkpt><trkpt lat="38.2202021" lon="15.4958245"><ele>319.0</ele><time>2026-03-26T09:31:01.738Z</time></trkpt><trkpt lat="38.2201243" lon="15.4957439"><ele>319.0</ele><time>2026-03-26T09:31:03.739Z</time></trkpt><trkpt lat="38.2200254" lon="15.4956752"><ele>319.0</ele><time>2026-03-26T09:31:05.738Z</time></trkpt><trkpt lat="38.2199274" lon="15.495661"><ele>319.0</ele><time>2026-03-26T09:31:07.739Z</time></trkpt><trkpt lat="38.2198547" lon="15.4956827"><ele>319.0</ele><time>2026-03-26T09:31:09.738Z</time></trkpt><trkpt lat="38.2197617" lon="15.4957551"><ele>319.0</ele><time>2026-03-26T09:31:11.739Z</time></trkpt><trkpt lat="38.2196827" lon="15.4957846"><ele>319.0</ele><time>2026-03-26T09:31:13.738Z</time></trkpt><trkpt lat="38.2195455" lon="15.4959902"><ele>319.66666666666663</ele><time>2026-03-26T09:37:18.738Z</time></trkpt><trkpt lat="38.2195637" lon="15.4960852"><ele>320.3333333333333</ele><time>2026-03-26T09:37:26.739Z</time></trkpt><trkpt lat="38.2195801" lon="15.496171"><ele>321.0</ele><time>2026-03-26T09:37:30.74Z</time></trkpt><trkpt lat="38.2195528" lon="15.496262"><ele>321.6666666666667</ele><time>2026-03-26T09:37:32.739Z</time></trkpt><trkpt lat="38.2194564" lon="15.4963216"><ele>322.33333333333337</ele><time>2026-03-26T09:37:34.739Z</time></trkpt><trkpt lat="38.2194005" lon="15.4963711"><ele>323.0</ele><time>2026-03-26T09:37:36.739Z</time></trkpt><trkpt lat="38.2193296" lon="15.4964263"><ele>323.0</ele><time>2026-03-26T09:37:38.74Z</time></trkpt><trkpt lat="38.2192914" lon="15.4965064"><ele>323.0</ele><time>2026-03-26T09:37:40.74Z</time></trkpt><trkpt lat="38.2192417" lon="15.4966163"><ele>323.0</ele><time>2026-03-26T09:37:42.739Z</time></trkpt><trkpt lat="38.2192138" lon="15.4966955"><ele>323.0</ele><time>2026-03-26T09:37:44.74Z</time></trkpt><trkpt lat="38.2191629" lon="15.4967972"><ele>323.0</ele><time>2026-03-26T09:37:47.74Z</time></trkpt><trkpt lat="38.2191221" lon="15.4968646"><ele>323.0</ele><time>2026-03-26T09:37:49.739Z</time></trkpt><trkpt lat="38.219064" lon="15.4969562"><ele>327.59999999999997</ele><time>2026-03-26T09:37:51.739Z</time></trkpt><trkpt lat="38.2189681" lon="15.4970265"><ele>332.2</ele><time>2026-03-26T09:37:53.74Z</time></trkpt><trkpt lat="38.2188787" lon="15.4970356"><ele>336.8</ele><time>2026-03-26T09:37:54.739Z</time></trkpt><trkpt lat="38.2187728" lon="15.497081"><ele>341.4</ele><time>2026-03-26T09:37:56.739Z</time></trkpt><trkpt lat="38.2187463" lon="15.4971935"><ele>346.0</ele><time>2026-03-26T09:37:58.74Z</time></trkpt><trkpt lat="38.2187164" lon="15.4972683"><ele>346.0</ele><time>2026-03-26T09:37:59.739Z</time></trkpt><trkpt lat="38.2187497" lon="15.4973678"><ele>346.0</ele><time>2026-03-26T09:38:01.739Z</time></trkpt><trkpt lat="38.2188091" lon="15.4974185"><ele>346.0</ele><time>2026-03-26T09:38:03.739Z</time></trkpt><trkpt lat="38.2189123" lon="15.4974904"><ele>346.0</ele><time>2026-03-26T09:38:05.74Z</time></trkpt><trkpt lat="38.2189938" lon="15.4975449"><ele>346.0</ele><time>2026-03-26T09:38:07.739Z</time></trkpt><trkpt lat="38.2190893" lon="15.4975694"><ele>341.4</ele><time>2026-03-26T09:38:09.738Z</time></trkpt><trkpt lat="38.2191942" lon="15.4975305"><ele>336.8</ele><time>2026-03-26T09:38:11.739Z</time></trkpt><trkpt lat="38.2192879" lon="15.4974211"><ele>332.2</ele><time>2026-03-26T09:38:13.739Z</time></trkpt><trkpt lat="38.2193577" lon="15.4973029"><ele>327.59999999999997</ele><time>2026-03-26T09:38:15.739Z</time></trkpt><trkpt lat="38.219449" lon="15.4972721"><ele>323.0</ele><time>2026-03-26T09:38:17.739Z</time></trkpt><trkpt lat="38.2195532" lon="15.4973184"><ele>323.0</ele><time>2026-03-26T09:38:19.74Z</time></trkpt><trkpt lat="38.2196402" lon="15.4974099"><ele>323.0</ele><time>2026-03-26T09:38:21.739Z</time></trkpt><trkpt lat="38.2196879" lon="15.4974774"><ele>323.0</ele><time>2026-03-26T09:38:22.738Z</time></trkpt><trkpt lat="38.2197705" lon="15.4975923"><ele>323.0</ele><time>2026-03-26T09:38:24.739Z</time></trkpt><trkpt lat="38.2198407" lon="15.4976554"><ele>323.0</ele><time>2026-03-26T09:38:26.739Z</time></trkpt><trkpt lat="38.2199289" lon="15.4976975"><ele>321.4</ele><time>2026-03-26T09:38:28.74Z</time></trkpt><trkpt lat="38.220037" lon="15.4977232"><ele>319.79999999999995</ele><time>2026-03-26T09:38:30.74Z</time></trkpt><trkpt lat="38.2201583" lon="15.4977768"><ele>318.2</ele><time>2026-03-26T09:38:32.739Z</time></trkpt><trkpt lat="38.2202335" lon="15.497861"><ele>316.6</ele><time>2026-03-26T09:38:34.738Z</time></trkpt><trkpt lat="38.2202166" lon="15.49798"><ele>315.0</ele><time>2026-03-26T09:38:36.739Z</time></trkpt><trkpt lat="38.2202095" lon="15.4981055"><ele>315.0</ele><time>2026-03-26T09:38:38.74Z</time></trkpt><trkpt lat="38.2202276" lon="15.4982402"><ele>315.0</ele><time>2026-03-26T09:38:40.739Z</time></trkpt><trkpt lat="38.2202678" lon="15.4983431"><ele>315.0</ele><time>2026-03-26T09:38:42.739Z</time></trkpt><trkpt lat="38.2203075" lon="15.4984394"><ele>315.0</ele><time>2026-03-26T09:38:44.739Z</time></trkpt><trkpt lat="38.2203325" lon="15.4985348"><ele>315.0</ele><time>2026-03-26T09:38:46.739Z</time></trkpt><trkpt lat="38.2202918" lon="15.4986699"><ele>316.4</ele><time>2026-03-26T09:38:48.739Z</time></trkpt><trkpt lat="38.2202608" lon="15.498814"><ele>317.8</ele><time>2026-03-26T09:38:50.74Z</time></trkpt><trkpt lat="38.2202526" lon="15.4989488"><ele>319.20000000000005</ele><time>2026-03-26T09:38:52.739Z</time></trkpt><trkpt lat="38.2202463" lon="15.4990522"><ele>320.6</ele><time>2026-03-26T09:38:54.739Z</time></trkpt><trkpt lat="38.220285" lon="15.4991596"><ele>322.0</ele><time>2026-03-26T09:38:56.74Z</time></trkpt><trkpt lat="38.2203493" lon="15.49923"><ele>322.0</ele><time>2026-03-26T09:38:58.74Z</time></trkpt><trkpt lat="38.2204111" lon="15.4992889"><ele>322.0</ele><time>2026-03-26T09:39:00.74Z</time></trkpt><trkpt lat="38.2204566" lon="15.4993474"><ele>322.0</ele><time>2026-03-26T09:39:02.739Z</time></trkpt><trkpt lat="38.2205575" lon="15.4993695"><ele>322.0</ele><time>2026-03-26T09:39:05.739Z</time></trkpt><trkpt lat="38.2206132" lon="15.4993052"><ele>322.0</ele><time>2026-03-26T09:39:07.739Z</time></trkpt><trkpt lat="38.2206286" lon="15.4992162"><ele>322.0</ele><time>2026-03-26T09:39:09.739Z</time></trkpt><trkpt lat="38.2206118" lon="15.4991088"><ele>322.0</ele><time>2026-03-26T09:39:11.74Z</time></trkpt><trkpt lat="38.2206311" lon="15.4989886"><ele>322.0</ele><time>2026-03-26T09:39:14.74Z</time></trkpt><trkpt lat="38.2206722" lon="15.4988906"><ele>322.0</ele><time>2026-03-26T09:39:16.739Z</time></trkpt><trkpt lat="38.2207255" lon="15.4988171"><ele>322.0</ele><time>2026-03-26T09:39:18.739Z</time></trkpt><trkpt lat="38.2207801" lon="15.4987283"><ele>322.0</ele><time>2026-03-26T09:39:20.74Z</time></trkpt><trkpt lat="38.2208662" lon="15.4986474"><ele>314.20000000000005</ele><time>2026-03-26T09:39:22.739Z</time></trkpt><trkpt lat="38.2209624" lon="15.4985907"><ele>306.40000000000003</ele><time>2026-03-26T09:39:24.74Z</time></trkpt><trkpt lat="38.2210363" lon="15.4985914"><ele>298.6</ele><time>2026-03-26T09:39:25.74Z</time></trkpt><trkpt lat="38.2211051" lon="15.4985904"><ele>290.8</ele><time>2026-03-26T09:39:26.74Z</time></trkpt><trkpt lat="38.2211683" lon="15.498574"><ele>283.0</ele><time>2026-03-26T09:39:27.739Z</time></trkpt><trkpt lat="38.2213054" lon="15.4985858"><ele>283.0</ele><time>2026-03-26T09:39:29.739Z</time></trkpt><trkpt lat="38.2214235" lon="15.4986486"><ele>283.0</ele><time>2026-03-26T09:39:31.74Z</time></trkpt><trkpt lat="38.2214841" lon="15.4986843"><ele>283.0</ele><time>2026-03-26T09:39:32.739Z</time></trkpt><trkpt lat="38.2215621" lon="15.4986332"><ele>283.0</ele><time>2026-03-26T09:39:34.739Z</time></trkpt><trkpt lat="38.2216194" lon="15.4985287"><ele>283.0</ele><time>2026-03-26T09:39:36.738Z</time></trkpt><trkpt lat="38.2216807" lon="15.4984034"><ele>284.2</ele><time>2026-03-26T09:39:38.739Z</time></trkpt><trkpt lat="38.2217281" lon="15.4982923"><ele>285.4</ele><time>2026-03-26T09:39:40.739Z</time></trkpt><trkpt lat="38.2217914" lon="15.4982028"><ele>286.59999999999997</ele><time>2026-03-26T09:39:42.74Z</time></trkpt><trkpt lat="38.2219638" lon="15.4982777"><ele>287.8</ele><time>2026-03-26T09:39:44.739Z</time></trkpt><trkpt lat="38.2220362" lon="15.4982858"><ele>289.0</ele><time>2026-03-26T09:39:45.739Z</time></trkpt><trkpt lat="38.2221031" lon="15.498284"><ele>289.0</ele><time>2026-03-26T09:39:46.738Z</time></trkpt><trkpt lat="38.2221742" lon="15.498282"><ele>289.0</ele><time>2026-03-26T09:39:47.74Z</time></trkpt><trkpt lat="38.2222428" lon="15.4982823"><ele>289.0</ele><time>2026-03-26T09:39:48.739Z</time></trkpt><trkpt lat="38.2223105" lon="15.4982897"><ele>289.0</ele><time>2026-03-26T09:39:49.74Z</time></trkpt><trkpt lat="38.2224115" lon="15.4983918"><ele>289.0</ele><time>2026-03-26T09:39:51.74Z</time></trkpt><trkpt lat="38.2224688" lon="15.4984425"><ele>289.0</ele><time>2026-03-26T09:39:52.739Z</time></trkpt><trkpt lat="38.2224882" lon="15.4985205"><ele>289.8</ele><time>2026-03-26T09:39:53.739Z</time></trkpt><trkpt lat="38.2225853" lon="15.4986275"><ele>290.59999999999997</ele><time>2026-03-26T09:39:55.739Z</time></trkpt><trkpt lat="38.2226947" lon="15.4987136"><ele>291.4</ele><time>2026-03-26T09:39:57.74Z</time></trkpt><trkpt lat="38.2227482" lon="15.4987838"><ele>292.2</ele><time>2026-03-26T09:39:58.74Z</time></trkpt><trkpt lat="38.2228094" lon="15.4989052"><ele>293.0</ele><time>2026-03-26T09:40:00.739Z</time></trkpt><trkpt lat="38.2228433" lon="15.4989883"><ele>298.0</ele><time>2026-03-26T09:40:01.739Z</time></trkpt><trkpt lat="38.2228754" lon="15.4990636"><ele>303.0</ele><time>2026-03-26T09:40:02.74Z</time></trkpt><trkpt lat="38.2229229" lon="15.4991416"><ele>308.0</ele><time>2026-03-26T09:40:04.74Z</time></trkpt><trkpt lat="38.2230208" lon="15.4992193"><ele>313.0</ele><time>2026-03-26T09:40:06.74Z</time></trkpt><trkpt lat="38.2230843" lon="15.4992697"><ele>318.0</ele><time>2026-03-26T09:40:08.738Z</time></trkpt><trkpt lat="38.2231274" lon="15.4993979"><ele>323.0</ele><time>2026-03-26T09:43:25.74Z</time></trkpt><trkpt lat="38.2231339" lon="15.4994865"><ele>322.1666666666667</ele><time>2026-03-26T09:43:28.739Z</time></trkpt><trkpt lat="38.2232027" lon="15.4995616"><ele>321.33333333333337</ele><time>2026-03-26T09:43:30.74Z</time></trkpt><trkpt lat="38.2232685" lon="15.499639"><ele>320.5</ele><time>2026-03-26T09:43:32.739Z</time></trkpt><trkpt lat="38.223293" lon="15.4997245"><ele>319.6666666666667</ele><time>2026-03-26T09:44:35.74Z</time></trkpt><trkpt lat="38.2232994" lon="15.4998214"><ele>318.8333333333333</ele><time>2026-03-26T09:44:49.74Z</time></trkpt><trkpt lat="38.2232961" lon="15.4999127"><ele>318.0</ele><time>2026-03-26T09:44:51.739Z</time></trkpt><trkpt lat="38.2233052" lon="15.5000061"><ele>318.0</ele><time>2026-03-26T09:44:53.739Z</time></trkpt><trkpt lat="38.2233447" lon="15.5000724"><ele>318.0</ele><time>2026-03-26T09:44:55.739Z</time></trkpt><trkpt lat="38.2233705" lon="15.5001524"><ele>318.0</ele><time>2026-03-26T09:45:00.739Z</time></trkpt><trkpt lat="38.2233869" lon="15.5002306"><ele>318.0</ele><time>2026-03-26T09:45:07.74Z</time></trkpt><trkpt lat="38.2234262" lon="15.5003171"><ele>318.0</ele><time>2026-03-26T09:45:10.74Z</time></trkpt><trkpt lat="38.2234356" lon="15.500426"><ele>318.0</ele><time>2026-03-26T09:45:14.739Z</time></trkpt><trkpt lat="38.2234526" lon="15.500516"><ele>318.0</ele><time>2026-03-26T09:45:27.74Z</time></trkpt><trkpt lat="38.2234924" lon="15.5006009"><ele>319.7142857142857</ele><time>2026-03-26T09:45:29.74Z</time></trkpt><trkpt lat="38.2235169" lon="15.5006789"><ele>321.42857142857144</ele><time>2026-03-26T09:45:31.741Z</time></trkpt><trkpt lat="38.2235285" lon="15.500767"><ele>323.14285714285717</ele><time>2026-03-26T09:45:42.739Z</time></trkpt><trkpt lat="38.2235482" lon="15.500848"><ele>324.8571428571429</ele><time>2026-03-26T09:45:44.741Z</time></trkpt><trkpt lat="38.2235524" lon="15.5009336"><ele>326.57142857142856</ele><time>2026-03-26T09:45:49.741Z</time></trkpt><trkpt lat="38.223515" lon="15.5010067"><ele>328.28571428571433</ele><time>2026-03-26T09:45:55.74Z</time></trkpt><trkpt lat="38.2235049" lon="15.5010891"><ele>330.0</ele><time>2026-03-26T09:45:57.74Z</time></trkpt><trkpt lat="38.2235345" lon="15.5011657"><ele>330.00000000000006</ele><time>2026-03-26T09:45:59.739Z</time></trkpt><trkpt lat="38.2235705" lon="15.501243"><ele>330.0</ele><time>2026-03-26T09:46:01.741Z</time></trkpt><trkpt lat="38.2236075" lon="15.501321"><ele>330.0</ele><time>2026-03-26T09:46:04.741Z</time></trkpt><trkpt lat="38.2235854" lon="15.5014007"><ele>330.0</ele><time>2026-03-26T09:46:10.74Z</time></trkpt><trkpt lat="38.2235651" lon="15.5014799"><ele>330.0</ele><time>2026-03-26T09:46:12.74Z</time></trkpt><trkpt lat="38.2235691" lon="15.5015977"><ele>330.00000000000006</ele><time>2026-03-26T09:46:14.74Z</time></trkpt><trkpt lat="38.2235404" lon="15.5016927"><ele>330.0</ele><time>2026-03-26T09:46:17.741Z</time></trkpt><trkpt lat="38.2234972" lon="15.5017809"><ele>330.8</ele><time>2026-03-26T09:46:20.741Z</time></trkpt><trkpt lat="38.2234478" lon="15.5019003"><ele>331.6</ele><time>2026-03-26T09:46:22.741Z</time></trkpt><trkpt lat="38.2234093" lon="15.5019937"><ele>332.4</ele><time>2026-03-26T09:46:23.741Z</time></trkpt><trkpt lat="38.2233737" lon="15.5020687"><ele>333.2</ele><time>2026-03-26T09:46:24.74Z</time></trkpt><trkpt lat="38.2233343" lon="15.5021491"><ele>334.0</ele><time>2026-03-26T09:46:25.74Z</time></trkpt><trkpt lat="38.2232607" lon="15.5022824"><ele>334.5</ele><time>2026-03-26T09:46:27.741Z</time></trkpt><trkpt lat="38.223218" lon="15.5023882"><ele>335.0</ele><time>2026-03-26T09:46:29.741Z</time></trkpt><trkpt lat="38.2232128" lon="15.5025092"><ele>335.5</ele><time>2026-03-26T09:46:31.74Z</time></trkpt><trkpt lat="38.2232865" lon="15.5025765"><ele>336.0</ele><time>2026-03-26T09:46:33.741Z</time></trkpt><trkpt lat="38.2233576" lon="15.5025876"><ele>336.5</ele><time>2026-03-26T09:46:35.741Z</time></trkpt><trkpt lat="38.2234311" lon="15.5025062"><ele>337.0</ele><time>2026-03-26T09:46:37.741Z</time></trkpt><trkpt lat="38.2235451" lon="15.5023754"><ele>337.0</ele><time>2026-03-26T09:46:39.74Z</time></trkpt><trkpt lat="38.2236189" lon="15.5023054"><ele>337.0</ele><time>2026-03-26T09:46:40.741Z</time></trkpt><trkpt lat="38.2236879" lon="15.5022456"><ele>337.0</ele><time>2026-03-26T09:46:41.74Z</time></trkpt><trkpt lat="38.2237446" lon="15.5021853"><ele>337.0</ele><time>2026-03-26T09:46:42.741Z</time></trkpt><trkpt lat="38.2237969" lon="15.5021317"><ele>337.0</ele><time>2026-03-26T09:46:43.74Z</time></trkpt><trkpt lat="38.2238347" lon="15.5020558"><ele>337.0</ele><time>2026-03-26T09:46:44.739Z</time></trkpt><trkpt lat="38.2238931" lon="15.5020027"><ele>336.40000000000003</ele><time>2026-03-26T09:46:45.741Z</time></trkpt><trkpt lat="38.2239421" lon="15.5019487"><ele>335.8</ele><time>2026-03-26T09:46:46.74Z</time></trkpt><trkpt lat="38.2240632" lon="15.5019283"><ele>335.2</ele><time>2026-03-26T09:46:48.741Z</time></trkpt><trkpt lat="38.2241367" lon="15.5019285"><ele>334.6</ele><time>2026-03-26T09:46:49.741Z</time></trkpt><trkpt lat="38.2242188" lon="15.5018494"><ele>334.0</ele><time>2026-03-26T09:46:51.741Z</time></trkpt><trkpt lat="38.2242399" lon="15.5017343"><ele>332.0</ele><time>2026-03-26T09:46:53.74Z</time></trkpt><trkpt lat="38.224251" lon="15.5015746"><ele>330.0</ele><time>2026-03-26T09:46:55.741Z</time></trkpt><trkpt lat="38.2242596" lon="15.5014332"><ele>328.0</ele><time>2026-03-26T09:46:57.741Z</time></trkpt><trkpt lat="38.2242721" lon="15.5013454"><ele>326.0</ele><time>2026-03-26T09:46:58.739Z</time></trkpt><trkpt lat="38.2242911" lon="15.5012562"><ele>324.0</ele><time>2026-03-26T09:46:59.74Z</time></trkpt><trkpt lat="38.2242915" lon="15.5011063"><ele>322.5</ele><time>2026-03-26T09:47:01.74Z</time></trkpt><trkpt lat="38.2242713" lon="15.5010185"><ele>321.0</ele><time>2026-03-26T09:47:02.741Z</time></trkpt><trkpt lat="38.2243003" lon="15.5009447"><ele>319.5</ele><time>2026-03-26T09:47:03.74Z</time></trkpt><trkpt lat="38.2243097" lon="15.500865"><ele>318.0</ele><time>2026-03-26T09:47:04.74Z</time></trkpt><trkpt lat="38.2243931" lon="15.500805"><ele>316.5</ele><time>2026-03-26T09:47:06.741Z</time></trkpt><trkpt lat="38.2244534" lon="15.5007704"><ele>315.0</ele><time>2026-03-26T09:47:07.741Z</time></trkpt><trkpt lat="38.2245916" lon="15.5008536"><ele>315.0</ele><time>2026-03-26T09:47:09.74Z</time></trkpt><trkpt lat="38.224655" lon="15.5008793"><ele>315.0</ele><time>2026-03-26T09:47:10.741Z</time></trkpt><trkpt lat="38.2247464" lon="15.500951"><ele>315.0</ele><time>2026-03-26T09:47:12.741Z</time></trkpt><trkpt lat="38.2248272" lon="15.5010799"><ele>315.0</ele><time>2026-03-26T09:47:14.74Z</time></trkpt><trkpt lat="38.2249098" lon="15.5012059"><ele>315.0</ele><time>2026-03-26T09:47:16.741Z</time></trkpt><trkpt lat="38.224976" lon="15.5012328"><ele>318.1666666666667</ele><time>2026-03-26T09:47:17.741Z</time></trkpt><trkpt lat="38.2250469" lon="15.5012676"><ele>321.3333333333333</ele><time>2026-03-26T09:47:18.74Z</time></trkpt><trkpt lat="38.2251175" lon="15.5013074"><ele>324.5</ele><time>2026-03-26T09:47:19.741Z</time></trkpt><trkpt lat="38.2252051" lon="15.5013351"><ele>327.66666666666663</ele><time>2026-03-26T09:47:20.74Z</time></trkpt><trkpt lat="38.2252923" lon="15.5013193"><ele>330.8333333333333</ele><time>2026-03-26T09:47:22.74Z</time></trkpt><trkpt lat="38.2253731" lon="15.5012531"><ele>334.0</ele><time>2026-03-26T09:47:24.74Z</time></trkpt><trkpt lat="38.2253759" lon="15.501131"><ele>334.0</ele><time>2026-03-26T09:47:26.741Z</time></trkpt><trkpt lat="38.2253536" lon="15.5010455"><ele>334.0</ele><time>2026-03-26T09:47:27.739Z</time></trkpt><trkpt lat="38.2253672" lon="15.5009035"><ele>334.0</ele><time>2026-03-26T09:47:28.741Z</time></trkpt><trkpt lat="38.225362" lon="15.5007939"><ele>334.0</ele><time>2026-03-26T09:47:29.741Z</time></trkpt><trkpt lat="38.2253193" lon="15.5006838"><ele>334.0</ele><time>2026-03-26T09:47:30.74Z</time></trkpt><trkpt lat="38.2253048" lon="15.5005822"><ele>334.0</ele><time>2026-03-26T09:47:31.74Z</time></trkpt><trkpt lat="38.2252688" lon="15.5004298"><ele>334.2</ele><time>2026-03-26T09:47:33.741Z</time></trkpt><trkpt lat="38.2252493" lon="15.5003409"><ele>334.4</ele><time>2026-03-26T09:47:34.74Z</time></trkpt><trkpt lat="38.2252471" lon="15.500209"><ele>334.6</ele><time>2026-03-26T09:47:36.741Z</time></trkpt><trkpt lat="38.2252081" lon="15.5000907"><ele>334.8</ele><time>2026-03-26T09:47:38.741Z</time></trkpt><trkpt lat="38.2251395" lon="15.4999913"><ele>335.0</ele><time>2026-03-26T09:47:40.74Z</time></trkpt><trkpt lat="38.2250597" lon="15.4999412"><ele>335.0</ele><time>2026-03-26T09:47:41.74Z</time></trkpt><trkpt lat="38.2249732" lon="15.4998379"><ele>335.0</ele><time>2026-03-26T09:47:43.741Z</time></trkpt><trkpt lat="38.2248778" lon="15.4997513"><ele>335.0</ele><time>2026-03-26T09:47:45.741Z</time></trkpt><trkpt lat="38.2248097" lon="15.4996409"><ele>335.0</ele><time>2026-03-26T09:47:47.741Z</time></trkpt><trkpt lat="38.2248398" lon="15.4995458"><ele>335.0</ele><time>2026-03-26T09:47:48.741Z</time></trkpt><trkpt lat="38.2248502" lon="15.4993892"><ele>335.1666666666667</ele><time>2026-03-26T09:47:50.74Z</time></trkpt><trkpt lat="38.2248529" lon="15.4993044"><ele>335.33333333333337</ele><time>2026-03-26T09:47:51.74Z</time></trkpt><trkpt lat="38.2248567" lon="15.4992188"><ele>335.5</ele><time>2026-03-26T09:47:52.74Z</time></trkpt><trkpt lat="38.2248159" lon="15.4991133"><ele>335.6666666666667</ele><time>2026-03-26T09:47:53.74Z</time></trkpt><trkpt lat="38.2247752" lon="15.4990395"><ele>335.8333333333333</ele><time>2026-03-26T09:47:54.741Z</time></trkpt><trkpt lat="38.2247223" lon="15.4989443"><ele>336.0</ele><time>2026-03-26T09:47:55.74Z</time></trkpt><trkpt lat="38.2246639" lon="15.498868"><ele>331.6666666666667</ele><time>2026-03-26T09:47:56.74Z</time></trkpt><trkpt lat="38.2246568" lon="15.4987709"><ele>327.3333333333333</ele><time>2026-03-26T09:47:57.74Z</time></trkpt><trkpt lat="38.2246188" lon="15.4986787"><ele>323.0</ele><time>2026-03-26T09:47:58.74Z</time></trkpt><trkpt lat="38.2245812" lon="15.4986093"><ele>318.66666666666663</ele><time>2026-03-26T09:47:59.741Z</time></trkpt><trkpt lat="38.2245524" lon="15.49852"><ele>314.3333333333333</ele><time>2026-03-26T09:48:00.74Z</time></trkpt><trkpt lat="38.2245168" lon="15.4984252"><ele>310.0</ele><time>2026-03-26T09:48:02.741Z</time></trkpt><trkpt lat="38.2245352" lon="15.4982551"><ele>310.0</ele><time>2026-03-26T09:48:04.741Z</time></trkpt><trkpt lat="38.2245656" lon="15.4981577"><ele>310.0</ele><time>2026-03-26T09:48:05.74Z</time></trkpt><trkpt lat="38.2246142" lon="15.4980466"><ele>310.0</ele><time>2026-03-26T09:48:06.74Z</time></trkpt><trkpt lat="38.2246278" lon="15.4979572"><ele>310.0</ele><time>2026-03-26T09:48:07.74Z</time></trkpt><trkpt lat="38.2246661" lon="15.4978907"><ele>310.0</ele><time>2026-03-26T09:48:08.741Z</time></trkpt><trkpt lat="38.224714" lon="15.4978269"><ele>310.0</ele><time>2026-03-26T09:48:10.74Z</time></trkpt><trkpt lat="38.2247762" lon="15.497803"><ele>311.4</ele><time>2026-03-26T09:48:12.741Z</time></trkpt><trkpt lat="38.2249043" lon="15.4978324"><ele>312.8</ele><time>2026-03-26T09:48:14.741Z</time></trkpt><trkpt lat="38.2250151" lon="15.4979088"><ele>314.2</ele><time>2026-03-26T09:48:15.741Z</time></trkpt><trkpt lat="38.2250836" lon="15.4979713"><ele>315.6</ele><time>2026-03-26T09:48:17.74Z</time></trkpt><trkpt lat="38.2251468" lon="15.4980671"><ele>317.0</ele><time>2026-03-26T09:48:19.741Z</time></trkpt><trkpt lat="38.2251818" lon="15.4981384"><ele>320.0</ele><time>2026-03-26T09:48:20.741Z</time></trkpt><trkpt lat="38.2252499" lon="15.4982584"><ele>323.0</ele><time>2026-03-26T09:48:21.739Z</time></trkpt><trkpt lat="38.2253295" lon="15.4983306"><ele>326.0</ele><time>2026-03-26T09:48:22.741Z</time></trkpt><trkpt lat="38.2254029" lon="15.4984357"><ele>329.0</ele><time>2026-03-26T09:48:23.74Z</time></trkpt><trkpt lat="38.2254766" lon="15.4985099"><ele>332.0</ele><time>2026-03-26T09:48:24.741Z</time></trkpt><trkpt lat="38.2255739" lon="15.4985389"><ele>332.0</ele><time>2026-03-26T09:48:25.741Z</time></trkpt><trkpt lat="38.2256317" lon="15.4985842"><ele>332.0</ele><time>2026-03-26T09:48:26.74Z</time></trkpt><trkpt lat="38.2256891" lon="15.4986564"><ele>332.0</ele><time>2026-03-26T09:48:27.741Z</time></trkpt><trkpt lat="38.2257747" lon="15.4987748"><ele>332.0</ele><time>2026-03-26T09:48:29.74Z</time></trkpt><trkpt lat="38.2258227" lon="15.4988547"><ele>332.0</ele><time>2026-03-26T09:48:30.741Z</time></trkpt><trkpt lat="38.2258646" lon="15.4989411"><ele>332.0</ele><time>2026-03-26T09:48:31.739Z</time></trkpt><trkpt lat="38.225893" lon="15.4990563"><ele>331.8</ele><time>2026-03-26T09:48:32.74Z</time></trkpt><trkpt lat="38.2259365" lon="15.4991538"><ele>331.6</ele><time>2026-03-26T09:48:33.74Z</time></trkpt><trkpt lat="38.2259859" lon="15.4992527"><ele>331.40000000000003</ele><time>2026-03-26T09:48:34.741Z</time></trkpt><trkpt lat="38.2260473" lon="15.4993303"><ele>331.20000000000005</ele><time>2026-03-26T09:48:35.741Z</time></trkpt><trkpt lat="38.2261304" lon="15.4993825"><ele>331.0</ele><time>2026-03-26T09:48:36.741Z</time></trkpt><trkpt lat="38.2262242" lon="15.4994473"><ele>331.0</ele><time>2026-03-26T09:48:37.74Z</time></trkpt><trkpt lat="38.2263401" lon="15.4995244"><ele>331.0</ele><time>2026-03-26T09:48:38.741Z</time></trkpt><trkpt lat="38.226435" lon="15.4995789"><ele>331.0</ele><time>2026-03-26T09:48:39.741Z</time></trkpt><trkpt lat="38.2265114" lon="15.4996342"><ele>331.0</ele><time>2026-03-26T09:48:40.741Z</time></trkpt><trkpt lat="38.2265851" lon="15.4996845"><ele>331.0</ele><time>2026-03-26T09:48:41.741Z</time></trkpt><trkpt lat="38.226631" lon="15.4997491"><ele>332.20000000000005</ele><time>2026-03-26T09:48:42.74Z</time></trkpt><trkpt lat="38.2267034" lon="15.4998566"><ele>333.40000000000003</ele><time>2026-03-26T09:48:44.741Z</time></trkpt><trkpt lat="38.226738" lon="15.4999239"><ele>334.6</ele><time>2026-03-26T09:48:45.74Z</time></trkpt><trkpt lat="38.226755" lon="15.5000583"><ele>335.8</ele><time>2026-03-26T09:48:46.741Z</time></trkpt><trkpt lat="38.2267744" lon="15.5001566"><ele>337.0</ele><time>2026-03-26T09:48:47.741Z</time></trkpt><trkpt lat="38.2267976" lon="15.500316"><ele>337.0</ele><time>2026-03-26T09:48:49.74Z</time></trkpt><trkpt lat="38.2268229" lon="15.5003952"><ele>337.0</ele><time>2026-03-26T09:48:50.741Z</time></trkpt><trkpt lat="38.2268342" lon="15.5005214"><ele>337.0</ele><time>2026-03-26T09:48:52.74Z</time></trkpt><trkpt lat="38.2268408" lon="15.5006076"><ele>337.0</ele><time>2026-03-26T09:48:54.741Z</time></trkpt><trkpt lat="38.2269006" lon="15.500647"><ele>337.0</ele><time>2026-03-26T09:49:37.741Z</time></trkpt><trkpt lat="38.2269777" lon="15.5006107"><ele>337.0</ele><time>2026-03-26T09:49:39.741Z</time></trkpt><trkpt lat="38.2270778" lon="15.5005559"><ele>339.20000000000005</ele><time>2026-03-26T09:49:41.741Z</time></trkpt><trkpt lat="38.2271644" lon="15.5005358"><ele>341.4</ele><time>2026-03-26T09:49:43.741Z</time></trkpt><trkpt lat="38.2272796" lon="15.5005246"><ele>343.6</ele><time>2026-03-26T09:49:45.739Z</time></trkpt><trkpt lat="38.2273908" lon="15.5005311"><ele>345.79999999999995</ele><time>2026-03-26T09:49:47.741Z</time></trkpt><trkpt lat="38.2274819" lon="15.500568"><ele>348.0</ele><time>2026-03-26T09:49:49.74Z</time></trkpt><trkpt lat="38.2275465" lon="15.5006252"><ele>348.0</ele><time>2026-03-26T09:49:51.741Z</time></trkpt><trkpt lat="38.2276372" lon="15.500656"><ele>348.0</ele><time>2026-03-26T09:49:53.74Z</time></trkpt><trkpt lat="38.2277164" lon="15.5006093"><ele>348.0</ele><time>2026-03-26T09:49:56.741Z</time></trkpt><trkpt lat="38.2277704" lon="15.5005636"><ele>348.0</ele><time>2026-03-26T09:50:17.741Z</time></trkpt><trkpt lat="38.2277082" lon="15.5005496"><ele>348.0</ele><time>2026-03-26T09:50:21.739Z</time></trkpt><trkpt lat="38.2276293" lon="15.5006242"><ele>348.0</ele><time>2026-03-26T09:50:23.741Z</time></trkpt><trkpt lat="38.2275556" lon="15.5006139"><ele>348.0</ele><time>2026-03-26T09:50:25.74Z</time></trkpt><trkpt lat="38.2275001" lon="15.5005737"><ele>348.0</ele><time>2026-03-26T09:50:27.741Z</time></trkpt><trkpt lat="38.2274352" lon="15.5005253"><ele>348.0</ele><time>2026-03-26T09:50:29.74Z</time></trkpt><trkpt lat="38.2273697" lon="15.5004966"><ele>348.0</ele><time>2026-03-26T09:50:31.741Z</time></trkpt><trkpt lat="38.2272897" lon="15.5004962"><ele>348.0</ele><time>2026-03-26T09:50:35.74Z</time></trkpt><trkpt lat="38.2272111" lon="15.5005235"><ele>348.0</ele><time>2026-03-26T09:50:38.741Z</time></trkpt><trkpt lat="38.2271177" lon="15.5005517"><ele>348.3333333333333</ele><time>2026-03-26T09:50:41.74Z</time></trkpt><trkpt lat="38.227039" lon="15.5005973"><ele>348.6666666666667</ele><time>2026-03-26T09:50:43.74Z</time></trkpt><trkpt lat="38.2269801" lon="15.5006783"><ele>349.0</ele><time>2026-03-26T09:50:45.74Z</time></trkpt><trkpt lat="38.2269161" lon="15.500649"><ele>349.33333333333337</ele><time>2026-03-26T09:50:47.739Z</time></trkpt><trkpt lat="38.2269343" lon="15.5005683"><ele>349.6666666666667</ele><time>2026-03-26T09:50:52.739Z</time></trkpt><trkpt lat="38.2269913" lon="15.5005193"><ele>350.0</ele><time>2026-03-26T09:50:53.74Z</time></trkpt><trkpt lat="38.2270581" lon="15.5004544"><ele>347.6</ele><time>2026-03-26T09:50:54.741Z</time></trkpt><trkpt lat="38.2271234" lon="15.5004129"><ele>345.2</ele><time>2026-03-26T09:50:55.74Z</time></trkpt><trkpt lat="38.2271925" lon="15.5003642"><ele>342.79999999999995</ele><time>2026-03-26T09:50:56.741Z</time></trkpt><trkpt lat="38.2273107" lon="15.5003003"><ele>340.4</ele><time>2026-03-26T09:50:58.741Z</time></trkpt><trkpt lat="38.2274488" lon="15.5002724"><ele>338.0</ele><time>2026-03-26T09:51:00.741Z</time></trkpt><trkpt lat="38.2275154" lon="15.5002117"><ele>338.0</ele><time>2026-03-26T09:51:02.74Z</time></trkpt><trkpt lat="38.2274967" lon="15.5001147"><ele>338.0</ele><time>2026-03-26T09:51:04.739Z</time></trkpt><trkpt lat="38.2274479" lon="15.5000133"><ele>338.0</ele><time>2026-03-26T09:51:06.74Z</time></trkpt><trkpt lat="38.2274179" lon="15.499917"><ele>338.0</ele><time>2026-03-26T09:51:08.741Z</time></trkpt><trkpt lat="38.2274124" lon="15.4997949"><ele>338.0</ele><time>2026-03-26T09:51:10.741Z</time></trkpt><trkpt lat="38.2274459" lon="15.4996994"><ele>338.0</ele><time>2026-03-26T09:51:11.741Z</time></trkpt><trkpt lat="38.2274276" lon="15.4995356"><ele>338.33333333333337</ele><time>2026-03-26T09:51:13.74Z</time></trkpt><trkpt lat="38.2274099" lon="15.4994315"><ele>338.6666666666667</ele><time>2026-03-26T09:51:14.74Z</time></trkpt><trkpt lat="38.2273914" lon="15.4993322"><ele>339.0</ele><time>2026-03-26T09:51:15.74Z</time></trkpt><trkpt lat="38.2273736" lon="15.4992485"><ele>339.3333333333333</ele><time>2026-03-26T09:51:16.741Z</time></trkpt><trkpt lat="38.2273495" lon="15.4991577"><ele>339.66666666666663</ele><time>2026-03-26T09:51:17.74Z</time></trkpt><trkpt lat="38.2273265" lon="15.4990617"><ele>340.0</ele><time>2026-03-26T09:51:18.74Z</time></trkpt><trkpt lat="38.227298" lon="15.498975"><ele>336.16666666666663</ele><time>2026-03-26T09:51:19.74Z</time></trkpt><trkpt lat="38.2272519" lon="15.4989057"><ele>332.3333333333333</ele><time>2026-03-26T09:51:20.739Z</time></trkpt><trkpt lat="38.2272153" lon="15.4988299"><ele>328.5</ele><time>2026-03-26T09:51:21.74Z</time></trkpt><trkpt lat="38.2271278" lon="15.4987247"><ele>324.6666666666667</ele><time>2026-03-26T09:51:23.74Z</time></trkpt><trkpt lat="38.2270561" lon="15.4986084"><ele>320.83333333333337</ele><time>2026-03-26T09:51:25.74Z</time></trkpt><trkpt lat="38.227045" lon="15.4985259"><ele>317.0</ele><time>2026-03-26T09:51:26.741Z</time></trkpt><trkpt lat="38.2271018" lon="15.4984267"><ele>315.33333333333337</ele><time>2026-03-26T09:51:28.74Z</time></trkpt><trkpt lat="38.2271412" lon="15.498361"><ele>313.6666666666667</ele><time>2026-03-26T09:51:29.741Z</time></trkpt><trkpt lat="38.2272046" lon="15.4983057"><ele>312.0</ele><time>2026-03-26T09:51:30.739Z</time></trkpt><trkpt lat="38.2272583" lon="15.4982227"><ele>310.3333333333333</ele><time>2026-03-26T09:51:31.741Z</time></trkpt><trkpt lat="38.2273149" lon="15.4981158"><ele>308.66666666666663</ele><time>2026-03-26T09:51:32.74Z</time></trkpt><trkpt lat="38.2273591" lon="15.4980178"><ele>307.0</ele><time>2026-03-26T09:51:33.741Z</time></trkpt><trkpt lat="38.2273863" lon="15.4979259"><ele>313.4</ele><time>2026-03-26T09:51:34.74Z</time></trkpt><trkpt lat="38.2274247" lon="15.4978344"><ele>319.79999999999995</ele><time>2026-03-26T09:51:35.74Z</time></trkpt><trkpt lat="38.2274182" lon="15.4976662"><ele>326.2</ele><time>2026-03-26T09:51:37.741Z</time></trkpt><trkpt lat="38.2274193" lon="15.4975686"><ele>332.59999999999997</ele><time>2026-03-26T09:51:38.74Z</time></trkpt><trkpt lat="38.2273687" lon="15.4974764"><ele>339.0</ele><time>2026-03-26T09:51:39.74Z</time></trkpt><trkpt lat="38.227344" lon="15.4973882"><ele>339.0</ele><time>2026-03-26T09:51:40.74Z</time></trkpt><trkpt lat="38.2273223" lon="15.4972814"><ele>339.0</ele><time>2026-03-26T09:51:41.739Z</time></trkpt><trkpt lat="38.22734" lon="15.4971797"><ele>339.0</ele><time>2026-03-26T09:51:43.741Z</time></trkpt><trkpt lat="38.2273506" lon="15.4970467"><ele>339.0</ele><time>2026-03-26T09:51:45.74Z</time></trkpt><trkpt lat="38.2273905" lon="15.4969777"><ele>339.0</ele><time>2026-03-26T09:51:46.74Z</time></trkpt><trkpt lat="38.2274703" lon="15.4968961"><ele>339.0</ele><time>2026-03-26T09:51:47.74Z</time></trkpt><trkpt lat="38.2275184" lon="15.4968143"><ele>337.0</ele><time>2026-03-26T09:51:48.74Z</time></trkpt><trkpt lat="38.2275502" lon="15.4967216"><ele>335.0</ele><time>2026-03-26T09:51:49.74Z</time></trkpt><trkpt lat="38.2275788" lon="15.4965755"><ele>333.0</ele><time>2026-03-26T09:51:51.74Z</time></trkpt><trkpt lat="38.2276113" lon="15.4964786"><ele>331.0</ele><time>2026-03-26T09:51:52.741Z</time></trkpt><trkpt lat="38.2276195" lon="15.4963933"><ele>329.0</ele><time>2026-03-26T09:51:53.74Z</time></trkpt><trkpt lat="38.2277059" lon="15.4962704"><ele>327.0</ele><time>2026-03-26T09:51:54.74Z</time></trkpt><trkpt lat="38.2277435" lon="15.496167"><ele>325.0</ele><time>2026-03-26T09:51:55.741Z</time></trkpt><trkpt lat="38.2277812" lon="15.4960683"><ele>323.0</ele><time>2026-03-26T09:51:56.74Z</time></trkpt><trkpt lat="38.2278133" lon="15.4959897"><ele>321.0</ele><time>2026-03-26T09:51:57.741Z</time></trkpt><trkpt lat="38.2278758" lon="15.4959634"><ele>319.0</ele><time>2026-03-26T09:51:59.741Z</time></trkpt><trkpt lat="38.2279473" lon="15.4959941"><ele>317.0</ele><time>2026-03-26T09:52:01.741Z</time></trkpt><trkpt lat="38.2280132" lon="15.4961136"><ele>317.0</ele><time>2026-03-26T09:52:03.741Z</time></trkpt><trkpt lat="38.2280582" lon="15.4962391"><ele>317.0</ele><time>2026-03-26T09:52:05.741Z</time></trkpt><trkpt lat="38.2280951" lon="15.4963489"><ele>317.0</ele><time>2026-03-26T09:52:07.74Z</time></trkpt><trkpt lat="38.2281021" lon="15.4964842"><ele>317.0</ele><time>2026-03-26T09:52:09.741Z</time></trkpt><trkpt lat="38.2281077" lon="15.4966354"><ele>317.0</ele><time>2026-03-26T09:52:11.74Z</time></trkpt><trkpt lat="38.2281114" lon="15.4967976"><ele>319.0</ele><time>2026-03-26T09:52:13.74Z</time></trkpt><trkpt lat="38.2281181" lon="15.4969259"><ele>321.0</ele><time>2026-03-26T09:52:15.741Z</time></trkpt><trkpt lat="38.2281502" lon="15.4970158"><ele>323.0</ele><time>2026-03-26T09:52:16.741Z</time></trkpt><trkpt lat="38.2282348" lon="15.4971148"><ele>325.0</ele><time>2026-03-26T09:52:18.741Z</time></trkpt><trkpt lat="38.2283013" lon="15.4971472"><ele>327.0</ele><time>2026-03-26T09:52:19.74Z</time></trkpt><trkpt lat="38.2283782" lon="15.4971554"><ele>329.0</ele><time>2026-03-26T09:52:20.741Z</time></trkpt><trkpt lat="38.2284567" lon="15.4971345"><ele>329.33333333333337</ele><time>2026-03-26T09:52:21.739Z</time></trkpt><trkpt lat="38.2285403" lon="15.4971401"><ele>329.6666666666667</ele><time>2026-03-26T09:52:22.741Z</time></trkpt><trkpt lat="38.2285816" lon="15.4970788"><ele>330.0</ele><time>2026-03-26T09:52:23.74Z</time></trkpt><trkpt lat="38.2286716" lon="15.497008"><ele>330.3333333333333</ele><time>2026-03-26T09:52:25.741Z</time></trkpt><trkpt lat="38.2287763" lon="15.4969709"><ele>330.66666666666663</ele><time>2026-03-26T09:52:27.74Z</time></trkpt><trkpt lat="38.2288382" lon="15.4969421"><ele>331.0</ele><time>2026-03-26T09:52:28.739Z</time></trkpt><trkpt lat="38.2289202" lon="15.4970135"><ele>330.5</ele><time>2026-03-26T09:52:30.741Z</time></trkpt><trkpt lat="38.2289575" lon="15.4970945"><ele>330.0</ele><time>2026-03-26T09:52:32.741Z</time></trkpt><trkpt lat="38.2289817" lon="15.4971817"><ele>329.5</ele><time>2026-03-26T09:52:35.739Z</time></trkpt><trkpt lat="38.2289857" lon="15.4972738"><ele>329.0</ele><time>2026-03-26T09:52:39.74Z</time></trkpt><trkpt lat="38.2289463" lon="15.4974423"><ele>328.5</ele><time>2026-03-26T09:52:41.739Z</time></trkpt><trkpt lat="38.2289087" lon="15.4975253"><ele>328.0</ele><time>2026-03-26T09:52:42.74Z</time></trkpt><trkpt lat="38.2288672" lon="15.4976361"><ele>330.16666666666663</ele><time>2026-03-26T09:52:43.74Z</time></trkpt><trkpt lat="38.2288338" lon="15.497723"><ele>332.3333333333333</ele><time>2026-03-26T09:52:44.74Z</time></trkpt><trkpt lat="38.2287952" lon="15.4978191"><ele>334.5</ele><time>2026-03-26T09:52:45.74Z</time></trkpt><trkpt lat="38.2287696" lon="15.4978925"><ele>336.6666666666667</ele><time>2026-03-26T09:52:46.74Z</time></trkpt><trkpt lat="38.228727" lon="15.4980189"><ele>338.83333333333337</ele><time>2026-03-26T09:52:48.74Z</time></trkpt><trkpt lat="38.2287493" lon="15.4981104"><ele>341.0</ele><time>2026-03-26T09:52:50.741Z</time></trkpt><trkpt lat="38.2288096" lon="15.4981745"><ele>349.0</ele><time>2026-03-26T09:52:52.741Z</time></trkpt><trkpt lat="38.2288096" lon="15.4981745"><ele>349.0</ele><time>2026-03-26T09:52:52.741Z</time></trkpt></trkseg></trk></gpx>